createdAt,value
2023-07-05T00:01:19.451Z,13.20
2023-07-05T00:03:46.707Z,13.30
2023-07-05T00:06:13.915Z,13.20
2023-07-05T00:08:41.608Z,13.20
2023-07-05T00:11:11.935Z,13.20
2023-07-05T00:13:39.799Z,13.30
2023-07-05T00:16:07.463Z,13.20
2023-07-05T00:18:35.036Z,13.10
2023-07-05T00:21:04.290Z,13.10
2023-07-05T00:23:33.842Z,13.10
2023-07-05T00:26:01.700Z,13.00
2023-07-05T00:28:29.183Z,13.00
2023-07-05T00:30:56.474Z,13.00
2023-07-05T00:33:23.920Z,13.10
2023-07-05T00:35:53.599Z,13.00
2023-07-05T00:38:22.187Z,12.90
2023-07-05T00:40:50.055Z,12.70
2023-07-05T00:43:19.135Z,12.60
2023-07-05T00:46:02.875Z,12.50
2023-07-05T00:48:36.335Z,12.70
2023-07-05T00:51:07.534Z,12.80
2023-07-05T00:53:38.823Z,12.70
2023-07-05T00:56:12.369Z,12.80
2023-07-05T00:58:41.559Z,12.80
2023-07-05T01:01:09.040Z,12.70
2023-07-05T01:03:37.076Z,12.80
2023-07-05T01:06:05.369Z,12.80
2023-07-05T01:08:32.573Z,12.80
2023-07-05T01:11:10.267Z,12.80
2023-07-05T01:13:48.546Z,12.90
2023-07-05T01:16:15.752Z,12.70
2023-07-05T01:19:16.155Z,12.70
2023-07-05T01:22:14.097Z,12.70
2023-07-05T01:25:12.781Z,12.70
2023-07-05T01:27:52.129Z,12.60
2023-07-05T01:30:31.252Z,12.40
2023-07-05T01:33:04.386Z,12.30
2023-07-05T01:35:38.430Z,12.50
2023-07-05T01:38:06.650Z,12.70
2023-07-05T01:40:33.821Z,12.70
2023-07-05T01:43:05.572Z,12.60
2023-07-05T01:45:54.930Z,12.40
2023-07-05T01:48:43.454Z,12.40
2023-07-05T01:51:32.712Z,12.50
2023-07-05T01:54:11.961Z,12.60
2023-07-05T01:56:51.526Z,12.60
2023-07-05T01:59:24.321Z,12.60
2023-07-05T02:01:56.693Z,12.60
2023-07-05T02:04:25.704Z,12.90
2023-07-05T02:06:54.400Z,12.90
2023-07-05T02:09:21.747Z,13.00
2023-07-05T02:11:48.972Z,13.00
2023-07-05T02:14:16.225Z,12.80
2023-07-05T02:16:43.532Z,12.60
2023-07-05T02:19:10.730Z,12.60
2023-07-05T02:21:38.113Z,12.70
2023-07-05T02:24:05.625Z,12.70
2023-07-05T02:26:34.676Z,12.90
2023-07-05T02:29:02.195Z,13.00
2023-07-05T02:31:30.471Z,13.00
2023-07-05T02:33:57.870Z,12.80
2023-07-05T02:36:25.079Z,12.70
2023-07-05T02:38:53.873Z,12.90
2023-07-05T02:41:21.664Z,12.90
2023-07-05T02:43:48.977Z,13.00
2023-07-05T02:46:16.251Z,13.00
2023-07-05T02:48:43.557Z,13.00
2023-07-05T02:51:10.687Z,13.00
2023-07-05T02:53:37.884Z,13.00
2023-07-05T02:56:05.184Z,12.90
2023-07-05T02:58:32.405Z,12.50
2023-07-05T03:00:59.648Z,12.40
2023-07-05T03:03:27.566Z,12.50
2023-07-05T03:05:56.745Z,12.60
2023-07-05T03:08:26.915Z,12.90
2023-07-05T03:11:04.300Z,12.90
2023-07-05T03:13:34.418Z,12.90
2023-07-05T03:16:02.934Z,13.20
2023-07-05T03:18:30.713Z,13.20
2023-07-05T03:20:58.131Z,13.00
2023-07-05T03:23:25.849Z,12.90
2023-07-05T03:26:00.586Z,12.80
2023-07-05T03:28:31.427Z,12.80
2023-07-05T03:31:03.447Z,12.90
2023-07-05T03:33:31.572Z,13.10
2023-07-05T03:36:06.492Z,13.30
2023-07-05T03:38:34.378Z,13.60
2023-07-05T03:41:16.128Z,13.90
2023-07-05T03:43:44.803Z,14.00
2023-07-05T03:46:13.756Z,13.80
2023-07-05T03:48:44.505Z,13.90
2023-07-05T03:51:14.043Z,14.00
2023-07-05T03:53:42.002Z,13.90
2023-07-05T03:56:10.782Z,13.70
2023-07-05T03:58:38.411Z,13.70
2023-07-05T04:01:08.883Z,13.60
2023-07-05T04:03:36.892Z,13.50
2023-07-05T04:06:04.251Z,13.40
2023-07-05T04:08:32.019Z,13.50
2023-07-05T04:10:59.398Z,13.60
2023-07-05T04:13:26.767Z,13.80
2023-07-05T04:16:02.363Z,13.80
2023-07-05T04:18:30.728Z,14.10
2023-07-05T04:20:58.515Z,14.40
2023-07-05T04:23:26.239Z,14.90
2023-07-05T04:26:09.466Z,15.10
2023-07-05T04:28:38.054Z,15.30
2023-07-05T04:31:12.101Z,15.20
2023-07-05T04:33:39.835Z,15.00
2023-07-05T04:36:23.142Z,15.00
2023-07-05T04:38:53.903Z,14.70
2023-07-05T04:41:21.161Z,14.80
2023-07-05T04:43:48.345Z,14.70
2023-07-05T04:46:15.573Z,14.70
2023-07-05T04:48:42.777Z,14.80
2023-07-05T04:51:10.175Z,14.80
2023-07-05T04:53:37.394Z,14.90
2023-07-05T04:56:05.045Z,15.20
2023-07-05T04:58:32.629Z,15.40
2023-07-05T05:01:05.733Z,15.60
2023-07-05T05:03:33.459Z,15.70
2023-07-05T05:06:01.180Z,15.80
2023-07-05T05:08:28.547Z,16.00
2023-07-05T05:11:00.827Z,16.40
2023-07-05T05:13:30.564Z,16.60
2023-07-05T05:15:58.501Z,16.70
2023-07-05T05:18:27.808Z,16.80
2023-07-05T05:20:55.443Z,16.60
2023-07-05T05:23:23.002Z,16.70
2023-07-05T05:25:50.611Z,16.70
2023-07-05T05:28:18.499Z,16.60
2023-07-05T05:30:46.766Z,16.70
2023-07-05T05:33:17.135Z,16.80
2023-07-05T05:35:49.320Z,17.10
2023-07-05T05:38:20.321Z,17.40
2023-07-05T05:40:51.433Z,17.80
2023-07-05T05:43:22.475Z,18.30
2023-07-05T05:45:49.668Z,18.80
2023-07-05T05:48:16.896Z,20.10
2023-07-05T05:50:44.133Z,21.20
2023-07-05T05:53:12.501Z,20.50
2023-07-05T05:55:40.957Z,20.40
2023-07-05T05:58:09.925Z,20.90
2023-07-05T06:00:39.004Z,20.60
2023-07-05T06:03:07.125Z,20.40
2023-07-05T06:05:35.197Z,20.10
2023-07-05T06:08:02.550Z,20.10
2023-07-05T06:10:30.366Z,19.80
2023-07-05T06:12:57.704Z,19.80
2023-07-05T06:15:24.911Z,19.90
2023-07-05T06:17:52.160Z,20.40
2023-07-05T06:20:19.633Z,20.50
2023-07-05T06:22:46.867Z,19.80
2023-07-05T06:25:14.110Z,19.60
2023-07-05T06:27:41.328Z,20.20
2023-07-05T06:30:09.239Z,20.80
2023-07-05T06:32:36.786Z,20.20
2023-07-05T06:35:05.250Z,21.20
2023-07-05T06:37:32.513Z,21.90
2023-07-05T06:39:59.746Z,21.40
2023-07-05T06:42:29.140Z,22.70
2023-07-05T06:44:57.348Z,23.50
2023-07-05T06:47:24.796Z,24.60
2023-07-05T06:49:51.979Z,24.50
2023-07-05T06:52:19.372Z,25.30
2023-07-05T06:54:46.567Z,26.10
2023-07-05T06:57:13.790Z,26.70
2023-07-05T06:59:45.347Z,26.00
2023-07-05T07:02:13.017Z,25.50
2023-07-05T07:04:40.470Z,24.70
2023-07-05T07:07:08.613Z,25.30
2023-07-05T07:09:36.305Z,24.90
2023-07-05T07:12:04.224Z,25.10
2023-07-05T07:14:31.514Z,25.50
2023-07-05T07:16:58.749Z,25.30
2023-07-05T07:19:25.963Z,24.90
2023-07-05T07:21:53.245Z,25.50
2023-07-05T07:24:20.723Z,25.50
2023-07-05T07:26:48.153Z,26.00
2023-07-05T07:29:15.360Z,26.10
2023-07-05T07:31:43.176Z,26.80
2023-07-05T07:34:11.868Z,26.50
2023-07-05T07:36:39.156Z,26.80
2023-07-05T07:39:06.806Z,25.70
2023-07-05T07:41:38.773Z,26.00
2023-07-05T07:44:09.649Z,27.70
2023-07-05T07:46:38.479Z,28.40
2023-07-05T07:49:08.396Z,27.70
2023-07-05T07:51:39.561Z,28.60
2023-07-05T07:54:10.419Z,27.90
2023-07-05T07:56:37.812Z,28.50
2023-07-05T07:59:08.769Z,30.10
2023-07-05T08:01:41.477Z,28.40
2023-07-05T08:04:12.239Z,30.20
2023-07-05T08:06:42.363Z,29.00
2023-07-05T08:09:16.309Z,25.90
2023-07-05T08:11:44.245Z,25.50
2023-07-05T08:14:14.996Z,24.90
2023-07-05T08:16:42.726Z,25.50
2023-07-05T08:19:10.556Z,24.30
2023-07-05T08:21:38.104Z,23.60
2023-07-05T08:24:24.160Z,23.10
2023-07-05T08:26:53.255Z,23.00
2023-07-05T08:29:20.713Z,22.30
2023-07-05T08:31:48.519Z,22.80
2023-07-05T08:34:16.554Z,25.60
2023-07-05T08:36:43.941Z,24.80
2023-07-05T08:39:13.353Z,24.30
2023-07-05T08:41:43.827Z,24.00
2023-07-05T08:44:25.649Z,24.20
2023-07-05T08:47:00.321Z,23.70
2023-07-05T08:49:34.298Z,23.70
2023-07-05T08:52:02.681Z,24.00
2023-07-05T08:54:33.922Z,23.50
2023-07-05T08:57:09.958Z,23.50
2023-07-05T08:59:45.221Z,23.50
2023-07-05T09:02:16.746Z,23.60
2023-07-05T09:04:49.142Z,23.50
2023-07-05T09:07:51.811Z,23.30
2023-07-05T09:10:26.289Z,23.00
2023-07-05T09:13:36.280Z,22.30
2023-07-05T09:16:06.225Z,21.00
2023-07-05T09:18:45.223Z,17.80
2023-07-05T09:21:27.570Z,17.00
2023-07-05T09:24:02.363Z,16.70
2023-07-05T09:26:38.437Z,16.50
2023-07-05T09:29:34.496Z,16.50
2023-07-05T09:32:13.418Z,16.80
2023-07-05T09:34:49.894Z,18.00
2023-07-05T09:37:32.193Z,21.20
2023-07-05T09:40:16.604Z,21.30
2023-07-05T09:43:14.777Z,21.10
2023-07-05T09:45:42.682Z,23.40
2023-07-05T09:48:13.477Z,24.60
2023-07-05T09:50:51.195Z,25.30
2023-07-05T09:53:29.328Z,24.10
2023-07-05T09:56:12.279Z,23.00
2023-07-05T09:58:45.851Z,22.90
2023-07-05T10:01:24.750Z,22.70
2023-07-05T10:04:01.846Z,23.30
2023-07-05T10:06:29.812Z,23.30
2023-07-05T10:09:05.490Z,22.90
2023-07-05T10:11:37.103Z,22.60
2023-07-05T10:14:07.096Z,22.00
2023-07-05T10:16:52.670Z,21.00
2023-07-05T10:19:25.472Z,19.10
2023-07-05T10:22:05.396Z,18.90
2023-07-05T10:24:43.572Z,19.50
2023-07-05T10:27:23.109Z,19.20
2023-07-05T10:29:51.423Z,18.90
2023-07-05T10:32:20.369Z,19.70
2023-07-05T10:34:51.206Z,20.50
2023-07-05T10:37:32.335Z,21.60
2023-07-05T10:40:05.374Z,22.40
2023-07-05T10:42:33.720Z,23.50
2023-07-05T10:45:02.347Z,23.60
2023-07-05T10:47:30.952Z,23.40
2023-07-05T10:50:06.598Z,24.00
2023-07-05T10:52:42.874Z,25.60
2023-07-05T10:55:18.313Z,27.50
2023-07-05T10:58:03.709Z,28.50
2023-07-05T11:00:40.913Z,30.00
2023-07-05T11:03:17.152Z,28.80
2023-07-05T11:05:51.550Z,26.60
2023-07-05T11:08:28.335Z,25.60
2023-07-05T11:10:59.914Z,25.50
2023-07-05T11:13:29.409Z,25.30
2023-07-05T11:15:58.959Z,25.60
2023-07-05T11:18:29.978Z,27.30
2023-07-05T11:20:58.838Z,26.60
2023-07-05T11:23:47.544Z,26.00
2023-07-05T11:26:35.979Z,25.80
2023-07-05T11:29:26.686Z,25.70
2023-07-05T11:31:53.904Z,25.10
2023-07-05T11:34:27.390Z,25.30
2023-07-05T11:37:17.513Z,25.70
2023-07-05T11:39:52.446Z,25.50
2023-07-05T11:42:21.274Z,25.70
2023-07-05T11:44:51.111Z,25.70
2023-07-05T11:47:24.599Z,25.90
2023-07-05T11:49:59.108Z,25.90
2023-07-05T11:52:31.233Z,26.30
2023-07-05T11:55:22.652Z,26.80
2023-07-05T11:57:54.055Z,27.80
2023-07-05T12:00:33.720Z,26.80
2023-07-05T12:03:06.616Z,26.30
2023-07-05T12:05:35.148Z,25.90
2023-07-05T12:08:11.491Z,26.00
2023-07-05T12:10:38.959Z,26.00
2023-07-05T12:13:24.711Z,26.00
2023-07-05T12:15:54.381Z,26.20
2023-07-05T12:18:22.573Z,26.00
2023-07-05T12:20:55.854Z,26.40
2023-07-05T12:23:30.188Z,26.30
2023-07-05T12:26:03.704Z,26.60
2023-07-05T12:28:34.351Z,26.60
2023-07-05T12:31:08.836Z,26.70
2023-07-05T12:33:38.055Z,26.50
2023-07-05T12:36:05.814Z,26.50
2023-07-05T12:38:33.712Z,26.50
2023-07-05T12:41:03.362Z,26.30
2023-07-05T12:43:31.317Z,26.40
2023-07-05T12:46:08.998Z,26.20
2023-07-05T12:48:38.100Z,26.20
2023-07-05T12:51:20.915Z,26.10
2023-07-05T12:53:58.019Z,26.30
2023-07-05T12:56:36.123Z,26.50
2023-07-05T12:59:16.993Z,26.60
2023-07-05T13:01:51.176Z,26.80
2023-07-05T13:04:20.803Z,26.60
2023-07-05T13:06:50.417Z,26.60
2023-07-05T13:09:44.597Z,26.80
2023-07-05T13:12:12.420Z,26.70
2023-07-05T13:14:44.910Z,26.50
2023-07-05T13:17:15.074Z,26.50
2023-07-05T13:19:51.582Z,26.50
2023-07-05T13:22:22.314Z,26.50
2023-07-05T13:24:51.216Z,26.70
2023-07-05T13:27:38.295Z,26.70
2023-07-05T13:30:17.197Z,26.60
2023-07-05T13:32:51.186Z,26.90
2023-07-05T13:35:18.510Z,27.30
2023-07-05T13:37:46.845Z,27.40
2023-07-05T13:40:23.398Z,27.60
2023-07-05T13:42:52.067Z,27.30
2023-07-05T13:45:23.331Z,27.30
2023-07-05T13:47:51.266Z,27.00
2023-07-05T13:50:18.813Z,26.90
2023-07-05T13:52:48.819Z,26.80
2023-07-05T13:55:18.755Z,26.80
2023-07-05T13:58:03.334Z,26.80
2023-07-05T14:00:33.769Z,26.80
2023-07-05T14:03:02.820Z,26.60
2023-07-05T14:05:31.022Z,26.60
2023-07-05T14:08:00.149Z,26.70
2023-07-05T14:10:29.775Z,26.50
2023-07-05T14:12:57.526Z,26.60
2023-07-05T14:15:44.006Z,26.50
2023-07-05T14:18:16.703Z,26.60
2023-07-05T14:20:45.135Z,26.30
2023-07-05T14:23:15.934Z,26.30
2023-07-05T14:25:46.402Z,26.10
2023-07-05T14:28:14.039Z,25.80
2023-07-05T14:30:42.997Z,25.90
2023-07-05T14:33:11.786Z,26.00
2023-07-05T14:35:39.515Z,25.80
2023-07-05T14:38:06.963Z,25.80
2023-07-05T14:40:34.481Z,25.80
2023-07-05T14:43:02.045Z,26.00
2023-07-05T14:45:34.547Z,25.90
2023-07-05T14:48:03.699Z,26.00
2023-07-05T14:50:33.040Z,26.00
2023-07-05T14:53:03.511Z,26.10
2023-07-05T14:55:32.150Z,26.10
2023-07-05T14:57:59.929Z,26.00
2023-07-05T15:00:30.124Z,26.00
2023-07-05T15:03:09.254Z,25.90
2023-07-05T15:05:36.746Z,25.90
2023-07-05T15:08:06.672Z,25.70
2023-07-05T15:10:35.232Z,25.80
2023-07-05T15:13:02.828Z,25.90
2023-07-05T15:15:40.189Z,25.80
2023-07-05T15:18:07.593Z,25.90
2023-07-05T15:20:36.260Z,26.30
2023-07-05T15:23:04.074Z,26.40
2023-07-05T15:25:31.671Z,26.50
2023-07-05T15:27:59.250Z,26.20
2023-07-05T15:30:27.263Z,26.50
2023-07-05T15:32:54.716Z,26.10
2023-07-05T15:35:24.114Z,25.70
2023-07-05T15:37:51.526Z,25.80
2023-07-05T15:40:19.513Z,25.80
2023-07-05T15:42:48.961Z,25.40
2023-07-05T15:45:16.980Z,24.90
2023-07-05T15:47:46.323Z,24.90
2023-07-05T15:50:16.877Z,24.80
2023-07-05T15:52:45.333Z,24.90
2023-07-05T15:55:14.186Z,24.80
2023-07-05T15:57:42.567Z,24.80
2023-07-05T16:00:26.808Z,24.80
2023-07-05T16:03:01.947Z,24.60
2023-07-05T16:05:39.240Z,24.50
2023-07-05T16:08:08.316Z,24.50
2023-07-05T16:10:52.294Z,24.40
2023-07-05T16:13:20.800Z,24.40
2023-07-05T16:15:59.783Z,24.30
2023-07-05T16:18:27.728Z,24.20
2023-07-05T16:20:57.206Z,24.00
2023-07-05T16:23:26.173Z,24.10
2023-07-05T16:25:53.850Z,24.40
2023-07-05T16:28:21.083Z,24.40
2023-07-05T16:30:48.314Z,24.20
2023-07-05T16:33:16.888Z,24.10
2023-07-05T16:35:56.695Z,24.00
2023-07-05T16:38:26.032Z,23.80
2023-07-05T16:41:01.230Z,23.70
2023-07-05T16:43:29.654Z,23.80
2023-07-05T16:45:59.432Z,23.70
2023-07-05T16:48:26.872Z,23.60
2023-07-05T16:50:54.751Z,23.60
2023-07-05T16:53:24.375Z,23.50
2023-07-05T16:55:52.692Z,23.60
2023-07-05T16:58:19.981Z,23.80
2023-07-05T17:00:48.152Z,23.70
2023-07-05T17:03:15.697Z,23.60
2023-07-05T17:05:45.991Z,23.70
2023-07-05T17:08:13.177Z,23.50
2023-07-05T17:10:41.283Z,23.70
2023-07-05T17:13:08.634Z,23.70
2023-07-05T17:15:35.793Z,23.80
2023-07-05T17:18:03.854Z,23.70
2023-07-05T17:20:31.256Z,23.70
2023-07-05T17:22:58.690Z,23.60
2023-07-05T17:25:27.059Z,23.50
2023-07-05T17:27:54.422Z,23.30
2023-07-05T17:30:21.760Z,23.30
2023-07-05T17:32:49.111Z,23.30
2023-07-05T17:35:17.159Z,23.20
2023-07-05T17:37:44.693Z,23.10
2023-07-05T17:40:13.184Z,23.10
2023-07-05T17:42:41.303Z,23.00
2023-07-05T17:45:08.776Z,23.00
2023-07-05T17:47:36.295Z,22.80
2023-07-05T17:50:03.603Z,22.70
2023-07-05T17:52:30.813Z,22.50
2023-07-05T17:54:59.425Z,22.40
2023-07-05T17:57:27.108Z,22.40
2023-07-05T17:59:54.324Z,22.30
2023-07-05T18:02:21.536Z,22.20
2023-07-05T18:04:49.240Z,22.10
2023-07-05T18:07:17.632Z,22.00
2023-07-05T18:09:45.271Z,21.90
2023-07-05T18:12:12.507Z,21.90
2023-07-05T18:14:39.722Z,21.80
2023-07-05T18:17:09.702Z,21.70
2023-07-05T18:19:38.023Z,21.60
2023-07-05T18:22:05.492Z,21.40
2023-07-05T18:24:32.680Z,21.40
2023-07-05T18:27:01.855Z,21.40
2023-07-05T18:29:29.088Z,21.30
2023-07-05T18:31:56.343Z,21.20
2023-07-05T18:34:23.807Z,21.20
2023-07-05T18:36:51.033Z,21.00
2023-07-05T18:39:18.284Z,21.00
2023-07-05T18:41:45.477Z,20.80
2023-07-05T18:44:13.068Z,20.60
2023-07-05T18:46:40.294Z,20.60
2023-07-05T18:49:09.255Z,20.50
2023-07-05T18:51:36.422Z,20.50
2023-07-05T18:54:05.528Z,20.30
2023-07-05T18:56:32.948Z,20.20
2023-07-05T18:59:00.439Z,20.20
2023-07-05T19:01:29.324Z,20.10
2023-07-05T19:03:57.015Z,20.00
2023-07-05T19:06:24.609Z,19.90
2023-07-05T19:08:54.210Z,19.90
2023-07-05T19:11:28.260Z,19.70
2023-07-05T19:13:57.005Z,19.70
2023-07-05T19:16:26.293Z,19.60
2023-07-05T19:18:54.161Z,19.50
2023-07-05T19:21:21.916Z,19.40
2023-07-05T19:23:50.387Z,19.20
2023-07-05T19:26:19.966Z,19.20
2023-07-05T19:28:48.297Z,19.00
2023-07-05T19:31:18.424Z,19.00
2023-07-05T19:33:47.970Z,18.80
2023-07-05T19:36:15.589Z,18.70
2023-07-05T19:38:42.857Z,18.60
2023-07-05T19:41:10.172Z,18.60
2023-07-05T19:43:37.450Z,18.50
2023-07-05T19:46:07.521Z,18.40
2023-07-05T19:48:35.257Z,18.30
2023-07-05T19:51:06.025Z,18.30
2023-07-05T19:53:34.529Z,18.30
2023-07-05T19:56:03.392Z,18.20
2023-07-05T19:58:32.031Z,18.00
2023-07-05T20:00:59.579Z,17.90
2023-07-05T20:03:27.880Z,17.90
2023-07-05T20:05:55.687Z,17.90
2023-07-05T20:08:24.528Z,17.90
2023-07-05T20:10:51.694Z,17.90
2023-07-05T20:13:21.704Z,17.90
2023-07-05T20:15:59.554Z,17.90
2023-07-05T20:18:27.519Z,17.90
2023-07-05T20:21:00.688Z,17.80
2023-07-05T20:23:36.784Z,17.90
2023-07-05T20:26:05.349Z,18.00
2023-07-05T20:28:32.568Z,17.80
2023-07-05T20:30:59.883Z,17.70
2023-07-05T20:33:31.426Z,17.70
2023-07-05T20:36:00.316Z,17.70
2023-07-05T20:38:28.818Z,17.40
2023-07-05T20:40:58.593Z,17.20
2023-07-05T20:43:26.433Z,17.20
2023-07-05T20:45:56.070Z,17.10
2023-07-05T20:48:23.597Z,17.10
2023-07-05T20:51:01.828Z,17.00
2023-07-05T20:53:29.886Z,16.90
2023-07-05T20:55:59.053Z,16.90
2023-07-05T20:58:29.841Z,16.80
2023-07-05T21:00:58.224Z,16.70
2023-07-05T21:03:26.317Z,16.80
2023-07-05T21:05:53.627Z,16.80
2023-07-05T21:08:21.088Z,16.80
2023-07-05T21:10:51.912Z,16.90
2023-07-05T21:13:20.917Z,16.80
2023-07-05T21:15:49.388Z,16.80
2023-07-05T21:18:16.849Z,16.80
2023-07-05T21:20:45.920Z,16.80
2023-07-05T21:23:15.081Z,16.70
2023-07-05T21:25:45.665Z,16.70
2023-07-05T21:28:12.825Z,16.60
2023-07-05T21:30:39.994Z,16.50
2023-07-05T21:33:07.886Z,16.50
2023-07-05T21:35:36.491Z,16.40
2023-07-05T21:38:05.620Z,16.30
2023-07-05T21:40:36.768Z,16.20
2023-07-05T21:43:06.822Z,16.20
2023-07-05T21:45:36.177Z,16.30
2023-07-05T21:48:04.931Z,16.20
2023-07-05T21:50:34.577Z,16.20
2023-07-05T21:53:02.955Z,16.30
2023-07-05T21:55:30.168Z,16.30
2023-07-05T21:57:57.413Z,16.30
2023-07-05T22:00:26.312Z,16.30
2023-07-05T22:02:57.304Z,16.20
2023-07-05T22:05:27.558Z,16.20
2023-07-05T22:07:55.025Z,16.20
2023-07-05T22:10:25.814Z,16.20
2023-07-05T22:12:54.768Z,16.20
2023-07-05T22:15:27.407Z,16.10
2023-07-05T22:17:55.669Z,16.10
2023-07-05T22:20:30.291Z,16.10
2023-07-05T22:22:59.721Z,16.10
2023-07-05T22:25:28.333Z,16.20
2023-07-05T22:27:55.598Z,16.30
2023-07-05T22:30:22.766Z,16.40
2023-07-05T22:32:50.041Z,16.50
2023-07-05T22:35:17.600Z,16.40
2023-07-05T22:37:44.763Z,16.40
2023-07-05T22:40:14.045Z,16.40
2023-07-05T22:42:42.447Z,16.40
2023-07-05T22:45:13.871Z,16.50
2023-07-05T22:47:42.400Z,16.50
2023-07-05T22:50:11.065Z,16.50
2023-07-05T22:52:38.777Z,16.50
2023-07-05T22:55:08.129Z,16.50
2023-07-05T22:57:35.984Z,16.40
2023-07-05T23:00:12.931Z,16.30
2023-07-05T23:02:41.026Z,16.40
2023-07-05T23:05:08.826Z,16.50
2023-07-05T23:07:36.031Z,16.50
2023-07-05T23:10:03.848Z,16.50
2023-07-05T23:12:31.166Z,16.50
2023-07-05T23:14:58.434Z,16.60
2023-07-05T23:17:26.631Z,16.50
2023-07-05T23:19:53.931Z,16.40
2023-07-05T23:22:21.152Z,16.40
2023-07-05T23:24:48.636Z,16.30
2023-07-05T23:27:17.454Z,16.20
2023-07-05T23:29:46.225Z,16.20
2023-07-05T23:32:16.357Z,16.20
2023-07-05T23:34:44.154Z,16.20
2023-07-05T23:37:11.745Z,16.10
2023-07-05T23:39:39.114Z,16.10
2023-07-05T23:42:06.703Z,15.90
2023-07-05T23:44:34.351Z,15.90
2023-07-05T23:47:01.603Z,15.90
2023-07-05T23:49:29.266Z,15.90
2023-07-05T23:51:57.940Z,15.80
2023-07-05T23:54:27.192Z,15.80
2023-07-05T23:57:03.330Z,15.70
2023-07-05T23:59:30.569Z,15.70
